sensor_id;sensor_type;location;lat;lon;timestamp;P1;durP1;ratioP1;P2;durP2;ratioP2
6564;SDS011;3316;44.118;27.258;2022-08-20T00:00:39;14.00;;;8.43;;
6564;SDS011;3316;44.118;27.258;2022-08-20T00:03:13;13.32;;;8.32;;
6564;SDS011;3316;44.118;27.258;2022-08-20T00:05:44;17.65;;;8.30;;
6564;SDS011;3316;44.118;27.258;2022-08-20T00:08:11;15.77;;;8.07;;
6564;SDS011;3316;44.118;27.258;2022-08-20T00:10:38;13.50;;;8.20;;
6564;SDS011;3316;44.118;27.258;2022-08-20T00:13:07;12.07;;;7.78;;
6564;SDS011;3316;44.118;27.258;2022-08-20T00:15:35;12.55;;;8.90;;
6564;SDS011;3316;44.118;27.258;2022-08-20T00:18:02;15.88;;;8.75;;
6564;SDS011;3316;44.118;27.258;2022-08-20T00:20:30;15.75;;;8.95;;
6564;SDS011;3316;44.118;27.258;2022-08-20T00:22:59;15.32;;;8.55;;
6564;SDS011;3316;44.118;27.258;2022-08-20T00:25:28;22.00;;;8.88;;
6564;SDS011;3316;44.118;27.258;2022-08-20T00:27:54;10.80;;;8.40;;
6564;SDS011;3316;44.118;27.258;2022-08-20T00:30:20;12.20;;;8.68;;
6564;SDS011;3316;44.118;27.258;2022-08-20T00:33:07;13.35;;;8.93;;
6564;SDS011;3316;44.118;27.258;2022-08-20T00:35:37;17.05;;;9.00;;
6564;SDS011;3316;44.118;27.258;2022-08-20T00:38:05;11.15;;;8.23;;
6564;SDS011;3316;44.118;27.258;2022-08-20T00:40:32;12.95;;;8.55;;
6564;SDS011;3316;44.118;27.258;2022-08-20T00:43:00;17.90;;;9.07;;
6564;SDS011;3316;44.118;27.258;2022-08-20T00:45:29;12.35;;;8.80;;
6564;SDS011;3316;44.118;27.258;2022-08-20T00:47:57;13.60;;;9.27;;
6564;SDS011;3316;44.118;27.258;2022-08-20T00:50:25;11.32;;;8.25;;
6564;SDS011;3316;44.118;27.258;2022-08-20T00:52:57;13.73;;;8.65;;
6564;SDS011;3316;44.118;27.258;2022-08-20T00:55:23;17.00;;;9.10;;
6564;SDS011;3316;44.118;27.258;2022-08-20T00:57:52;14.50;;;9.20;;
6564;SDS011;3316;44.118;27.258;2022-08-20T01:00:21;17.92;;;9.05;;
6564;SDS011;3316;44.118;27.258;2022-08-20T01:02:56;13.10;;;8.85;;
6564;SDS011;3316;44.118;27.258;2022-08-20T01:05:23;12.35;;;8.90;;
6564;SDS011;3316;44.118;27.258;2022-08-20T01:07:49;12.75;;;8.68;;
6564;SDS011;3316;44.118;27.258;2022-08-20T01:10:27;18.25;;;9.63;;
6564;SDS011;3316;44.118;27.258;2022-08-20T01:12:57;11.68;;;8.05;;
6564;SDS011;3316;44.118;27.258;2022-08-20T01:15:23;16.80;;;8.32;;
6564;SDS011;3316;44.118;27.258;2022-08-20T01:17:53;13.48;;;8.75;;
6564;SDS011;3316;44.118;27.258;2022-08-20T01:21:05;13.15;;;8.90;;
6564;SDS011;3316;44.118;27.258;2022-08-20T01:26:09;17.45;;;9.10;;
6564;SDS011;3316;44.118;27.258;2022-08-20T01:28:48;13.65;;;8.65;;
6564;SDS011;3316;44.118;27.258;2022-08-20T01:31:18;13.10;;;9.38;;
6564;SDS011;3316;44.118;27.258;2022-08-20T01:33:46;12.43;;;8.40;;
6564;SDS011;3316;44.118;27.258;2022-08-20T01:36:12;15.65;;;9.40;;
6564;SDS011;3316;44.118;27.258;2022-08-20T01:38:40;16.27;;;9.13;;
6564;SDS011;3316;44.118;27.258;2022-08-20T01:43:45;15.20;;;9.02;;
6564;SDS011;3316;44.118;27.258;2022-08-20T01:46:12;17.48;;;9.68;;
6564;SDS011;3316;44.118;27.258;2022-08-20T01:48:39;12.85;;;9.77;;
6564;SDS011;3316;44.118;27.258;2022-08-20T01:51:16;11.55;;;9.38;;
6564;SDS011;3316;44.118;27.258;2022-08-20T01:53:48;14.70;;;9.60;;
6564;SDS011;3316;44.118;27.258;2022-08-20T01:56:18;14.48;;;9.70;;
6564;SDS011;3316;44.118;27.258;2022-08-20T01:58:48;15.98;;;10.63;;
6564;SDS011;3316;44.118;27.258;2022-08-20T02:01:25;15.55;;;10.43;;
6564;SDS011;3316;44.118;27.258;2022-08-20T02:03:59;20.35;;;11.43;;
6564;SDS011;3316;44.118;27.258;2022-08-20T02:06:27;23.50;;;11.02;;
6564;SDS011;3316;44.118;27.258;2022-08-20T02:08:55;16.08;;;10.57;;
6564;SDS011;3316;44.118;27.258;2022-08-20T02:11:24;19.40;;;10.88;;
6564;SDS011;3316;44.118;27.258;2022-08-20T02:13:51;18.45;;;10.88;;
6564;SDS011;3316;44.118;27.258;2022-08-20T02:16:18;20.35;;;12.30;;
6564;SDS011;3316;44.118;27.258;2022-08-20T02:18:50;20.27;;;10.90;;
6564;SDS011;3316;44.118;27.258;2022-08-20T02:21:19;15.88;;;11.25;;
6564;SDS011;3316;44.118;27.258;2022-08-20T02:23:46;16.20;;;10.68;;
6564;SDS011;3316;44.118;27.258;2022-08-20T02:26:12;19.52;;;10.80;;
6564;SDS011;3316;44.118;27.258;2022-08-20T02:28:38;18.50;;;11.02;;
6564;SDS011;3316;44.118;27.258;2022-08-20T02:31:04;22.17;;;11.02;;
6564;SDS011;3316;44.118;27.258;2022-08-20T02:33:32;21.30;;;9.32;;
6564;SDS011;3316;44.118;27.258;2022-08-20T02:35:58;18.13;;;10.18;;
6564;SDS011;3316;44.118;27.258;2022-08-20T02:38:24;14.82;;;9.32;;
6564;SDS011;3316;44.118;27.258;2022-08-20T02:40:50;18.20;;;9.82;;
6564;SDS011;3316;44.118;27.258;2022-08-20T02:43:16;14.25;;;9.63;;
6564;SDS011;3316;44.118;27.258;2022-08-20T02:45:44;15.48;;;10.10;;
6564;SDS011;3316;44.118;27.258;2022-08-20T02:48:11;13.90;;;9.70;;
6564;SDS011;3316;44.118;27.258;2022-08-20T02:50:45;16.08;;;10.25;;
6564;SDS011;3316;44.118;27.258;2022-08-20T02:53:13;17.90;;;9.90;;
6564;SDS011;3316;44.118;27.258;2022-08-20T02:55:39;17.67;;;10.32;;
6564;SDS011;3316;44.118;27.258;2022-08-20T02:58:04;16.02;;;9.75;;
6564;SDS011;3316;44.118;27.258;2022-08-20T03:00:30;16.33;;;10.77;;
6564;SDS011;3316;44.118;27.258;2022-08-20T03:02:56;17.75;;;9.90;;
6564;SDS011;3316;44.118;27.258;2022-08-20T03:05:22;22.13;;;10.63;;
6564;SDS011;3316;44.118;27.258;2022-08-20T03:07:49;20.60;;;10.38;;
6564;SDS011;3316;44.118;27.258;2022-08-20T03:10:28;15.38;;;10.48;;
6564;SDS011;3316;44.118;27.258;2022-08-20T03:12:56;22.58;;;10.43;;
6564;SDS011;3316;44.118;27.258;2022-08-20T03:15:23;18.40;;;10.90;;
6564;SDS011;3316;44.118;27.258;2022-08-20T03:17:49;16.38;;;10.18;;
6564;SDS011;3316;44.118;27.258;2022-08-20T03:20:14;17.08;;;10.68;;
6564;SDS011;3316;44.118;27.258;2022-08-20T03:22:40;15.70;;;10.68;;
6564;SDS011;3316;44.118;27.258;2022-08-20T03:25:06;22.70;;;11.18;;
6564;SDS011;3316;44.118;27.258;2022-08-20T03:27:32;14.77;;;10.40;;
6564;SDS011;3316;44.118;27.258;2022-08-20T03:29:58;18.77;;;10.60;;
6564;SDS011;3316;44.118;27.258;2022-08-20T03:32:23;21.83;;;10.52;;
6564;SDS011;3316;44.118;27.258;2022-08-20T03:34:49;20.77;;;10.50;;
6564;SDS011;3316;44.118;27.258;2022-08-20T03:37:14;17.58;;;10.18;;
6564;SDS011;3316;44.118;27.258;2022-08-20T03:39:40;15.65;;;10.52;;
6564;SDS011;3316;44.118;27.258;2022-08-20T03:42:06;17.23;;;11.00;;
6564;SDS011;3316;44.118;27.258;2022-08-20T03:44:31;22.20;;;11.07;;
6564;SDS011;3316;44.118;27.258;2022-08-20T03:46:57;16.65;;;10.30;;
6564;SDS011;3316;44.118;27.258;2022-08-20T03:49:22;19.70;;;10.77;;
6564;SDS011;3316;44.118;27.258;2022-08-20T03:51:49;19.30;;;10.52;;
6564;SDS011;3316;44.118;27.258;2022-08-20T03:54:15;23.15;;;10.63;;
6564;SDS011;3316;44.118;27.258;2022-08-20T03:56:40;14.63;;;10.38;;
6564;SDS011;3316;44.118;27.258;2022-08-20T03:59:06;19.50;;;10.25;;
6564;SDS011;3316;44.118;27.258;2022-08-20T04:01:32;16.95;;;10.18;;
6564;SDS011;3316;44.118;27.258;2022-08-20T04:03:58;17.33;;;10.18;;
6564;SDS011;3316;44.118;27.258;2022-08-20T04:06:24;15.63;;;10.43;;
6564;SDS011;3316;44.118;27.258;2022-08-20T04:08:49;14.90;;;9.93;;
6564;SDS011;3316;44.118;27.258;2022-08-20T04:11:18;20.83;;;10.05;;
6564;SDS011;3316;44.118;27.258;2022-08-20T04:13:43;16.70;;;10.75;;
6564;SDS011;3316;44.118;27.258;2022-08-20T04:16:09;21.13;;;10.15;;
6564;SDS011;3316;44.118;27.258;2022-08-20T04:18:34;20.50;;;9.75;;
6564;SDS011;3316;44.118;27.258;2022-08-20T04:21:01;17.45;;;10.00;;
6564;SDS011;3316;44.118;27.258;2022-08-20T04:23:28;25.95;;;10.57;;
6564;SDS011;3316;44.118;27.258;2022-08-20T04:25:55;18.23;;;10.80;;
6564;SDS011;3316;44.118;27.258;2022-08-20T04:28:22;20.13;;;10.50;;
6564;SDS011;3316;44.118;27.258;2022-08-20T04:30:49;20.65;;;9.95;;
6564;SDS011;3316;44.118;27.258;2022-08-20T04:33:16;19.30;;;10.20;;
6564;SDS011;3316;44.118;27.258;2022-08-20T04:35:42;19.15;;;9.88;;
6564;SDS011;3316;44.118;27.258;2022-08-20T04:38:15;18.20;;;9.68;;
6564;SDS011;3316;44.118;27.258;2022-08-20T04:40:42;20.88;;;10.70;;
6564;SDS011;3316;44.118;27.258;2022-08-20T04:43:33;24.30;;;10.73;;
6564;SDS011;3316;44.118;27.258;2022-08-20T04:46:02;23.15;;;10.73;;
6564;SDS011;3316;44.118;27.258;2022-08-20T04:48:30;23.40;;;9.90;;
6564;SDS011;3316;44.118;27.258;2022-08-20T04:50:56;12.38;;;9.77;;
6564;SDS011;3316;44.118;27.258;2022-08-20T04:53:24;26.52;;;10.55;;
6564;SDS011;3316;44.118;27.258;2022-08-20T04:55:51;16.33;;;9.32;;
6564;SDS011;3316;44.118;27.258;2022-08-20T04:58:20;15.98;;;9.52;;
6564;SDS011;3316;44.118;27.258;2022-08-20T05:00:48;17.70;;;10.13;;
6564;SDS011;3316;44.118;27.258;2022-08-20T05:03:16;30.67;;;10.57;;
6564;SDS011;3316;44.118;27.258;2022-08-20T05:05:43;22.63;;;10.45;;
6564;SDS011;3316;44.118;27.258;2022-08-20T05:08:10;16.60;;;10.40;;
6564;SDS011;3316;44.118;27.258;2022-08-20T05:10:38;22.02;;;10.95;;
6564;SDS011;3316;44.118;27.258;2022-08-20T05:13:04;17.92;;;10.35;;
6564;SDS011;3316;44.118;27.258;2022-08-20T05:15:31;20.10;;;10.05;;
6564;SDS011;3316;44.118;27.258;2022-08-20T05:17:57;18.95;;;9.05;;
6564;SDS011;3316;44.118;27.258;2022-08-20T05:20:24;15.75;;;9.25;;
6564;SDS011;3316;44.118;27.258;2022-08-20T05:22:52;21.25;;;9.57;;
6564;SDS011;3316;44.118;27.258;2022-08-20T05:25:20;25.27;;;9.55;;
6564;SDS011;3316;44.118;27.258;2022-08-20T05:27:46;21.50;;;10.07;;
6564;SDS011;3316;44.118;27.258;2022-08-20T05:30:11;18.98;;;9.77;;
6564;SDS011;3316;44.118;27.258;2022-08-20T05:32:37;20.38;;;11.48;;
6564;SDS011;3316;44.118;27.258;2022-08-20T05:35:06;20.20;;;11.52;;
6564;SDS011;3316;44.118;27.258;2022-08-20T05:37:34;28.65;;;10.82;;
6564;SDS011;3316;44.118;27.258;2022-08-20T05:40:01;17.08;;;10.45;;
6564;SDS011;3316;44.118;27.258;2022-08-20T05:42:32;20.25;;;10.10;;
6564;SDS011;3316;44.118;27.258;2022-08-20T05:44:58;14.90;;;9.73;;
6564;SDS011;3316;44.118;27.258;2022-08-20T05:47:23;25.83;;;8.75;;
6564;SDS011;3316;44.118;27.258;2022-08-20T05:49:52;14.55;;;9.63;;
6564;SDS011;3316;44.118;27.258;2022-08-20T05:52:17;20.88;;;10.43;;
6564;SDS011;3316;44.118;27.258;2022-08-20T05:54:43;21.23;;;11.38;;
6564;SDS011;3316;44.118;27.258;2022-08-20T05:57:08;18.02;;;9.68;;
6564;SDS011;3316;44.118;27.258;2022-08-20T05:59:34;17.25;;;10.25;;
6564;SDS011;3316;44.118;27.258;2022-08-20T06:02:00;11.63;;;8.48;;
6564;SDS011;3316;44.118;27.258;2022-08-20T06:04:46;16.63;;;9.18;;
6564;SDS011;3316;44.118;27.258;2022-08-20T06:07:11;16.63;;;10.82;;
6564;SDS011;3316;44.118;27.258;2022-08-20T06:09:37;18.02;;;10.52;;
6564;SDS011;3316;44.118;27.258;2022-08-20T06:12:03;19.50;;;10.73;;
6564;SDS011;3316;44.118;27.258;2022-08-20T06:14:32;12.50;;;9.90;;
6564;SDS011;3316;44.118;27.258;2022-08-20T06:17:04;17.42;;;9.20;;
6564;SDS011;3316;44.118;27.258;2022-08-20T06:19:32;15.52;;;9.10;;
6564;SDS011;3316;44.118;27.258;2022-08-20T06:21:58;25.02;;;9.13;;
6564;SDS011;3316;44.118;27.258;2022-08-20T06:24:24;21.95;;;9.55;;
6564;SDS011;3316;44.118;27.258;2022-08-20T06:26:54;14.95;;;9.43;;
6564;SDS011;3316;44.118;27.258;2022-08-20T06:29:20;20.65;;;8.90;;
6564;SDS011;3316;44.118;27.258;2022-08-20T06:31:46;12.75;;;8.80;;
6564;SDS011;3316;44.118;27.258;2022-08-20T06:34:11;16.38;;;7.82;;
6564;SDS011;3316;44.118;27.258;2022-08-20T06:36:37;18.25;;;8.23;;
6564;SDS011;3316;44.118;27.258;2022-08-20T06:39:03;12.63;;;7.50;;
6564;SDS011;3316;44.118;27.258;2022-08-20T06:41:28;10.27;;;6.35;;
6564;SDS011;3316;44.118;27.258;2022-08-20T06:43:54;17.65;;;6.95;;
6564;SDS011;3316;44.118;27.258;2022-08-20T06:46:19;15.75;;;6.82;;
6564;SDS011;3316;44.118;27.258;2022-08-20T06:48:47;17.08;;;7.55;;
6564;SDS011;3316;44.118;27.258;2022-08-20T06:51:13;20.65;;;7.53;;
6564;SDS011;3316;44.118;27.258;2022-08-20T06:53:38;16.15;;;6.82;;
6564;SDS011;3316;44.118;27.258;2022-08-20T06:56:04;11.57;;;7.43;;
6564;SDS011;3316;44.118;27.258;2022-08-20T06:58:30;14.85;;;7.35;;
6564;SDS011;3316;44.118;27.258;2022-08-20T07:00:56;12.05;;;6.93;;
6564;SDS011;3316;44.118;27.258;2022-08-20T07:03:23;15.73;;;7.45;;
6564;SDS011;3316;44.118;27.258;2022-08-20T07:05:49;17.67;;;8.15;;
6564;SDS011;3316;44.118;27.258;2022-08-20T07:08:15;17.58;;;7.53;;
6564;SDS011;3316;44.118;27.258;2022-08-20T07:10:46;14.20;;;8.40;;
6564;SDS011;3316;44.118;27.258;2022-08-20T07:13:12;16.30;;;7.70;;
6564;SDS011;3316;44.118;27.258;2022-08-20T07:15:40;11.18;;;7.60;;
6564;SDS011;3316;44.118;27.258;2022-08-20T07:18:07;9.68;;;6.93;;
6564;SDS011;3316;44.118;27.258;2022-08-20T07:20:34;15.65;;;7.43;;
6564;SDS011;3316;44.118;27.258;2022-08-20T07:23:02;16.65;;;7.55;;
6564;SDS011;3316;44.118;27.258;2022-08-20T07:25:28;17.58;;;7.07;;
6564;SDS011;3316;44.118;27.258;2022-08-20T07:28:10;12.07;;;6.82;;
6564;SDS011;3316;44.118;27.258;2022-08-20T07:30:40;13.07;;;7.53;;
6564;SDS011;3316;44.118;27.258;2022-08-20T07:33:25;12.85;;;7.05;;
6564;SDS011;3316;44.118;27.258;2022-08-20T07:35:52;12.18;;;7.15;;
6564;SDS011;3316;44.118;27.258;2022-08-20T07:38:19;11.32;;;6.95;;
6564;SDS011;3316;44.118;27.258;2022-08-20T07:40:49;20.25;;;7.05;;
6564;SDS011;3316;44.118;27.258;2022-08-20T07:43:18;16.23;;;7.53;;
6564;SDS011;3316;44.118;27.258;2022-08-20T07:45:47;14.85;;;7.25;;
6564;SDS011;3316;44.118;27.258;2022-08-20T07:48:13;15.02;;;7.07;;
6564;SDS011;3316;44.118;27.258;2022-08-20T07:50:39;16.00;;;6.95;;
6564;SDS011;3316;44.118;27.258;2022-08-20T07:53:05;20.90;;;7.25;;
6564;SDS011;3316;44.118;27.258;2022-08-20T07:55:31;17.95;;;7.43;;
6564;SDS011;3316;44.118;27.258;2022-08-20T07:57:57;19.15;;;6.93;;
6564;SDS011;3316;44.118;27.258;2022-08-20T08:00:30;12.85;;;7.13;;
6564;SDS011;3316;44.118;27.258;2022-08-20T08:02:56;13.15;;;6.25;;
6564;SDS011;3316;44.118;27.258;2022-08-20T08:05:21;14.00;;;6.85;;
6564;SDS011;3316;44.118;27.258;2022-08-20T08:07:47;12.23;;;5.90;;
6564;SDS011;3316;44.118;27.258;2022-08-20T08:10:15;10.73;;;6.43;;
6564;SDS011;3316;44.118;27.258;2022-08-20T08:12:45;12.80;;;5.97;;
6564;SDS011;3316;44.118;27.258;2022-08-20T08:15:15;10.80;;;5.60;;
6564;SDS011;3316;44.118;27.258;2022-08-20T08:17:46;15.52;;;7.00;;
6564;SDS011;3316;44.118;27.258;2022-08-20T08:20:14;13.85;;;6.05;;
6564;SDS011;3316;44.118;27.258;2022-08-20T08:22:40;10.73;;;5.38;;
6564;SDS011;3316;44.118;27.258;2022-08-20T08:25:10;10.82;;;5.57;;
6564;SDS011;3316;44.118;27.258;2022-08-20T08:27:37;12.00;;;5.45;;
6564;SDS011;3316;44.118;27.258;2022-08-20T08:30:03;9.13;;;5.68;;
6564;SDS011;3316;44.118;27.258;2022-08-20T08:32:29;10.63;;;5.03;;
6564;SDS011;3316;44.118;27.258;2022-08-20T08:34:56;16.70;;;5.57;;
6564;SDS011;3316;44.118;27.258;2022-08-20T08:37:22;14.30;;;5.30;;
6564;SDS011;3316;44.118;27.258;2022-08-20T08:39:48;17.83;;;5.13;;
6564;SDS011;3316;44.118;27.258;2022-08-20T08:42:22;6.57;;;5.30;;
6564;SDS011;3316;44.118;27.258;2022-08-20T08:44:52;13.70;;;5.47;;
6564;SDS011;3316;44.118;27.258;2022-08-20T08:47:29;15.05;;;5.28;;
6564;SDS011;3316;44.118;27.258;2022-08-20T08:49:59;11.52;;;5.25;;
6564;SDS011;3316;44.118;27.258;2022-08-20T08:52:29;13.18;;;5.40;;
6564;SDS011;3316;44.118;27.258;2022-08-20T08:54:59;11.90;;;4.95;;
6564;SDS011;3316;44.118;27.258;2022-08-20T08:57:28;23.25;;;9.43;;
6564;SDS011;3316;44.118;27.258;2022-08-20T08:59:58;10.25;;;4.85;;
6564;SDS011;3316;44.118;27.258;2022-08-20T09:02:29;14.77;;;5.00;;
6564;SDS011;3316;44.118;27.258;2022-08-20T09:04:58;7.50;;;4.88;;
6564;SDS011;3316;44.118;27.258;2022-08-20T09:07:26;10.13;;;5.05;;
6564;SDS011;3316;44.118;27.258;2022-08-20T09:09:56;12.95;;;4.70;;
6564;SDS011;3316;44.118;27.258;2022-08-20T09:12:22;16.10;;;5.72;;
6564;SDS011;3316;44.118;27.258;2022-08-20T09:14:51;12.27;;;5.60;;
6564;SDS011;3316;44.118;27.258;2022-08-20T09:17:18;12.82;;;5.10;;
6564;SDS011;3316;44.118;27.258;2022-08-20T09:19:45;9.43;;;5.22;;
6564;SDS011;3316;44.118;27.258;2022-08-20T09:22:15;17.55;;;5.20;;
6564;SDS011;3316;44.118;27.258;2022-08-20T09:24:42;9.68;;;4.85;;
6564;SDS011;3316;44.118;27.258;2022-08-20T09:27:08;12.45;;;4.88;;
6564;SDS011;3316;44.118;27.258;2022-08-20T09:29:34;11.20;;;5.40;;
6564;SDS011;3316;44.118;27.258;2022-08-20T09:34:28;13.73;;;4.60;;
6564;SDS011;3316;44.118;27.258;2022-08-20T09:36:53;10.57;;;5.10;;
6564;SDS011;3316;44.118;27.258;2022-08-20T09:39:19;10.98;;;5.40;;
6564;SDS011;3316;44.118;27.258;2022-08-20T09:41:44;16.77;;;6.05;;
6564;SDS011;3316;44.118;27.258;2022-08-20T09:44:10;8.98;;;5.30;;
6564;SDS011;3316;44.118;27.258;2022-08-20T09:46:35;15.80;;;5.57;;
6564;SDS011;3316;44.118;27.258;2022-08-20T09:49:01;12.70;;;5.13;;
6564;SDS011;3316;44.118;27.258;2022-08-20T09:51:26;11.77;;;5.40;;
6564;SDS011;3316;44.118;27.258;2022-08-20T09:53:52;11.98;;;5.07;;
6564;SDS011;3316;44.118;27.258;2022-08-20T09:56:18;13.98;;;4.88;;
6564;SDS011;3316;44.118;27.258;2022-08-20T09:58:50;9.82;;;5.25;;
6564;SDS011;3316;44.118;27.258;2022-08-20T10:01:18;11.27;;;5.10;;
6564;SDS011;3316;44.118;27.258;2022-08-20T10:03:45;13.60;;;4.60;;
6564;SDS011;3316;44.118;27.258;2022-08-20T10:06:12;14.55;;;5.30;;
6564;SDS011;3316;44.118;27.258;2022-08-20T10:08:40;11.88;;;5.05;;
6564;SDS011;3316;44.118;27.258;2022-08-20T10:11:06;12.45;;;5.30;;
6564;SDS011;3316;44.118;27.258;2022-08-20T10:13:31;13.90;;;5.43;;
6564;SDS011;3316;44.118;27.258;2022-08-20T10:15:57;16.75;;;5.43;;
6564;SDS011;3316;44.118;27.258;2022-08-20T10:18:22;8.60;;;4.82;;
6564;SDS011;3316;44.118;27.258;2022-08-20T10:20:48;10.00;;;5.18;;
6564;SDS011;3316;44.118;27.258;2022-08-20T10:23:13;9.05;;;4.97;;
6564;SDS011;3316;44.118;27.258;2022-08-20T10:25:39;13.30;;;5.63;;
6564;SDS011;3316;44.118;27.258;2022-08-20T10:28:06;13.52;;;5.68;;
6564;SDS011;3316;44.118;27.258;2022-08-20T10:30:31;15.25;;;5.60;;
6564;SDS011;3316;44.118;27.258;2022-08-20T10:32:57;8.82;;;5.60;;
6564;SDS011;3316;44.118;27.258;2022-08-20T10:35:23;13.00;;;5.30;;
6564;SDS011;3316;44.118;27.258;2022-08-20T10:37:48;79.70;;;18.23;;
6564;SDS011;3316;44.118;27.258;2022-08-20T10:40:14;14.05;;;5.25;;
6564;SDS011;3316;44.118;27.258;2022-08-20T10:42:40;10.60;;;5.10;;
6564;SDS011;3316;44.118;27.258;2022-08-20T10:45:07;10.57;;;5.13;;
6564;SDS011;3316;44.118;27.258;2022-08-20T10:47:37;13.77;;;5.43;;
6564;SDS011;3316;44.118;27.258;2022-08-20T10:50:04;16.98;;;5.43;;
6564;SDS011;3316;44.118;27.258;2022-08-20T10:52:32;10.60;;;5.15;;
6564;SDS011;3316;44.118;27.258;2022-08-20T10:54:57;15.02;;;5.97;;
6564;SDS011;3316;44.118;27.258;2022-08-20T10:57:24;7.45;;;5.13;;
6564;SDS011;3316;44.118;27.258;2022-08-20T10:59:52;17.80;;;5.72;;
6564;SDS011;3316;44.118;27.258;2022-08-20T11:02:18;12.02;;;5.20;;
6564;SDS011;3316;44.118;27.258;2022-08-20T11:04:45;5.95;;;4.93;;
6564;SDS011;3316;44.118;27.258;2022-08-20T11:07:15;8.95;;;5.10;;
6564;SDS011;3316;44.118;27.258;2022-08-20T11:09:45;11.43;;;4.97;;
6564;SDS011;3316;44.118;27.258;2022-08-20T11:12:11;11.05;;;5.43;;
6564;SDS011;3316;44.118;27.258;2022-08-20T11:14:37;13.57;;;5.57;;
6564;SDS011;3316;44.118;27.258;2022-08-20T11:17:03;15.43;;;5.55;;
6564;SDS011;3316;44.118;27.258;2022-08-20T11:19:29;9.52;;;5.28;;
6564;SDS011;3316;44.118;27.258;2022-08-20T11:21:54;14.75;;;5.80;;
6564;SDS011;3316;44.118;27.258;2022-08-20T11:24:20;16.83;;;6.00;;
6564;SDS011;3316;44.118;27.258;2022-08-20T11:26:46;15.23;;;5.45;;
6564;SDS011;3316;44.118;27.258;2022-08-20T11:29:13;15.68;;;5.88;;
6564;SDS011;3316;44.118;27.258;2022-08-20T11:31:39;9.15;;;4.93;;
6564;SDS011;3316;44.118;27.258;2022-08-20T11:34:04;14.52;;;5.72;;
6564;SDS011;3316;44.118;27.258;2022-08-20T11:36:30;11.93;;;5.40;;
6564;SDS011;3316;44.118;27.258;2022-08-20T11:38:56;11.70;;;5.03;;
6564;SDS011;3316;44.118;27.258;2022-08-20T11:41:21;10.57;;;5.20;;
6564;SDS011;3316;44.118;27.258;2022-08-20T11:43:47;9.18;;;5.32;;
6564;SDS011;3316;44.118;27.258;2022-08-20T11:46:13;8.48;;;4.95;;
6564;SDS011;3316;44.118;27.258;2022-08-20T11:48:39;13.68;;;5.43;;
6564;SDS011;3316;44.118;27.258;2022-08-20T11:51:04;14.68;;;5.38;;
6564;SDS011;3316;44.118;27.258;2022-08-20T11:53:30;9.68;;;5.72;;
6564;SDS011;3316;44.118;27.258;2022-08-20T11:55:55;14.02;;;5.18;;
6564;SDS011;3316;44.118;27.258;2022-08-20T11:58:21;12.20;;;5.22;;
6564;SDS011;3316;44.118;27.258;2022-08-20T12:00:47;9.13;;;4.70;;
6564;SDS011;3316;44.118;27.258;2022-08-20T12:03:12;7.47;;;5.32;;
6564;SDS011;3316;44.118;27.258;2022-08-20T12:05:39;9.15;;;4.90;;
6564;SDS011;3316;44.118;27.258;2022-08-20T12:08:07;10.57;;;4.80;;
6564;SDS011;3316;44.118;27.258;2022-08-20T12:10:33;13.27;;;4.90;;
6564;SDS011;3316;44.118;27.258;2022-08-20T12:12:59;12.80;;;5.75;;
6564;SDS011;3316;44.118;27.258;2022-08-20T12:15:25;12.32;;;4.78;;
6564;SDS011;3316;44.118;27.258;2022-08-20T12:17:51;32.60;;;10.10;;
6564;SDS011;3316;44.118;27.258;2022-08-20T12:20:18;15.07;;;5.55;;
6564;SDS011;3316;44.118;27.258;2022-08-20T12:22:43;14.52;;;5.97;;
6564;SDS011;3316;44.118;27.258;2022-08-20T12:25:09;13.52;;;4.75;;
6564;SDS011;3316;44.118;27.258;2022-08-20T12:27:36;12.57;;;5.40;;
6564;SDS011;3316;44.118;27.258;2022-08-20T12:30:07;11.52;;;5.28;;
6564;SDS011;3316;44.118;27.258;2022-08-20T12:32:36;8.98;;;4.80;;
6564;SDS011;3316;44.118;27.258;2022-08-20T12:35:02;13.88;;;6.47;;
6564;SDS011;3316;44.118;27.258;2022-08-20T12:37:30;14.23;;;6.18;;
6564;SDS011;3316;44.118;27.258;2022-08-20T12:39:56;17.13;;;5.43;;
6564;SDS011;3316;44.118;27.258;2022-08-20T12:42:24;9.80;;;5.13;;
6564;SDS011;3316;44.118;27.258;2022-08-20T12:44:50;12.23;;;5.47;;
6564;SDS011;3316;44.118;27.258;2022-08-20T12:49:43;14.68;;;5.53;;
6564;SDS011;3316;44.118;27.258;2022-08-20T12:52:11;14.27;;;6.20;;
6564;SDS011;3316;44.118;27.258;2022-08-20T12:54:38;10.27;;;5.50;;
6564;SDS011;3316;44.118;27.258;2022-08-20T12:57:04;13.30;;;5.88;;
6564;SDS011;3316;44.118;27.258;2022-08-20T12:59:30;9.55;;;5.53;;
6564;SDS011;3316;44.118;27.258;2022-08-20T13:01:56;11.88;;;4.97;;
6564;SDS011;3316;44.118;27.258;2022-08-20T13:04:22;17.92;;;6.25;;
6564;SDS011;3316;44.118;27.258;2022-08-20T13:06:48;20.45;;;6.57;;
6564;SDS011;3316;44.118;27.258;2022-08-20T13:09:13;14.82;;;5.65;;
6564;SDS011;3316;44.118;27.258;2022-08-20T13:11:39;13.68;;;5.53;;
6564;SDS011;3316;44.118;27.258;2022-08-20T13:14:04;20.65;;;5.38;;
6564;SDS011;3316;44.118;27.258;2022-08-20T13:16:30;11.25;;;4.88;;
6564;SDS011;3316;44.118;27.258;2022-08-20T13:18:56;11.48;;;5.20;;
6564;SDS011;3316;44.118;27.258;2022-08-20T13:21:21;10.43;;;4.90;;
6564;SDS011;3316;44.118;27.258;2022-08-20T13:23:46;10.25;;;5.10;;
6564;SDS011;3316;44.118;27.258;2022-08-20T13:26:12;11.82;;;5.53;;
6564;SDS011;3316;44.118;27.258;2022-08-20T13:28:37;12.45;;;5.82;;
6564;SDS011;3316;44.118;27.258;2022-08-20T13:31:03;12.05;;;5.47;;
6564;SDS011;3316;44.118;27.258;2022-08-20T13:33:28;14.98;;;5.65;;
6564;SDS011;3316;44.118;27.258;2022-08-20T13:35:54;12.80;;;5.32;;
6564;SDS011;3316;44.118;27.258;2022-08-20T13:38:20;15.23;;;5.60;;
6564;SDS011;3316;44.118;27.258;2022-08-20T13:40:46;14.00;;;5.40;;
6564;SDS011;3316;44.118;27.258;2022-08-20T13:43:11;10.20;;;5.10;;
6564;SDS011;3316;44.118;27.258;2022-08-20T13:45:37;12.50;;;4.85;;
6564;SDS011;3316;44.118;27.258;2022-08-20T13:48:04;14.77;;;5.30;;
6564;SDS011;3316;44.118;27.258;2022-08-20T13:50:31;15.27;;;5.40;;
6564;SDS011;3316;44.118;27.258;2022-08-20T13:52:56;7.45;;;5.20;;
6564;SDS011;3316;44.118;27.258;2022-08-20T13:55:23;11.13;;;5.30;;
6564;SDS011;3316;44.118;27.258;2022-08-20T13:57:50;14.13;;;5.95;;
6564;SDS011;3316;44.118;27.258;2022-08-20T14:00:19;16.02;;;5.90;;
6564;SDS011;3316;44.118;27.258;2022-08-20T14:02:47;18.17;;;5.95;;
6564;SDS011;3316;44.118;27.258;2022-08-20T14:05:12;15.82;;;5.65;;
6564;SDS011;3316;44.118;27.258;2022-08-20T14:07:39;15.30;;;6.43;;
6564;SDS011;3316;44.118;27.258;2022-08-20T14:10:08;10.90;;;5.13;;
6564;SDS011;3316;44.118;27.258;2022-08-20T14:12:36;16.88;;;6.63;;
6564;SDS011;3316;44.118;27.258;2022-08-20T14:15:02;12.18;;;5.55;;
6564;SDS011;3316;44.118;27.258;2022-08-20T14:17:29;16.65;;;6.07;;
6564;SDS011;3316;44.118;27.258;2022-08-20T14:19:58;11.05;;;5.25;;
6564;SDS011;3316;44.118;27.258;2022-08-20T14:22:25;9.50;;;5.20;;
6564;SDS011;3316;44.118;27.258;2022-08-20T14:24:51;8.45;;;5.25;;
6564;SDS011;3316;44.118;27.258;2022-08-20T14:27:18;16.60;;;5.88;;
6564;SDS011;3316;44.118;27.258;2022-08-20T14:29:46;11.05;;;5.88;;
6564;SDS011;3316;44.118;27.258;2022-08-20T14:32:12;12.77;;;5.78;;
6564;SDS011;3316;44.118;27.258;2022-08-20T14:34:39;14.38;;;6.50;;
6564;SDS011;3316;44.118;27.258;2022-08-20T14:37:24;23.35;;;6.97;;
6564;SDS011;3316;44.118;27.258;2022-08-20T14:39:55;18.55;;;6.18;;
6564;SDS011;3316;44.118;27.258;2022-08-20T14:42:24;18.17;;;6.65;;
6564;SDS011;3316;44.118;27.258;2022-08-20T14:44:52;14.25;;;5.80;;
6564;SDS011;3316;44.118;27.258;2022-08-20T14:47:21;18.73;;;6.90;;
6564;SDS011;3316;44.118;27.258;2022-08-20T14:49:51;14.35;;;6.13;;
6564;SDS011;3316;44.118;27.258;2022-08-20T14:52:19;15.25;;;6.30;;
6564;SDS011;3316;44.118;27.258;2022-08-20T14:54:46;12.77;;;6.80;;
6564;SDS011;3316;44.118;27.258;2022-08-20T14:57:12;18.73;;;6.53;;